createdAt,value
2022-09-13T00:01:08.598Z,97898.16
2022-09-13T00:03:54.621Z,97758.38
2022-09-13T00:06:40.522Z,97915.28
2022-09-13T00:09:26.262Z,97906.97
2022-09-13T00:12:11.803Z,97874.50
2022-09-13T00:14:57.339Z,97901.97
2022-09-13T00:17:43.087Z,97734.66
2022-09-13T00:20:28.894Z,97883.88
2022-09-13T00:23:14.739Z,97866.03
2022-09-13T00:26:12.134Z,97896.03
2022-09-13T00:28:58.940Z,97898.06
2022-09-13T00:31:44.198Z,97889.06
2022-09-13T00:34:29.656Z,97739.47
2022-09-13T00:37:15.095Z,97858.47
2022-09-13T00:40:01.951Z,97833.72
2022-09-13T00:42:47.558Z,97852.78
2022-09-13T00:45:33.076Z,97886.69
2022-09-13T00:48:22.348Z,97760.00
2022-09-13T00:51:10.527Z,97885.66
2022-09-13T00:53:59.669Z,97881.41
2022-09-13T00:56:50.981Z,97842.88
2022-09-13T01:00:23.164Z,97878.78
2022-09-13T01:03:13.675Z,97880.97
2022-09-13T01:06:13.373Z,97868.47
2022-09-13T01:09:04.295Z,97874.44
2022-09-13T01:11:56.701Z,97713.78
2022-09-13T01:14:43.615Z,97871.78
2022-09-13T01:17:31.086Z,97722.97
2022-09-13T01:20:16.962Z,97881.56
2022-09-13T01:23:11.616Z,97898.06
2022-09-13T01:26:35.931Z,97909.16
2022-09-13T01:29:27.281Z,97891.09
2022-09-13T01:32:50.539Z,97886.97
2022-09-13T01:35:55.191Z,97889.63
2022-09-13T01:38:51.049Z,97889.47
2022-09-13T01:41:55.600Z,97897.06
2022-09-13T01:45:04.351Z,97898.25
2022-09-13T01:47:52.465Z,97859.94
2022-09-13T01:50:47.762Z,97852.19
2022-09-13T01:53:59.294Z,97890.34
2022-09-13T01:56:51.254Z,97904.34
2022-09-13T02:00:02.956Z,97886.38
2022-09-13T02:03:44.246Z,97886.97
2022-09-13T02:06:34.743Z,97761.44
2022-09-13T02:09:25.520Z,97888.88
2022-09-13T02:12:17.041Z,97883.78
2022-09-13T02:15:10.048Z,97885.97
2022-09-13T02:18:06.586Z,97819.44
2022-09-13T02:20:58.471Z,97891.09
2022-09-13T02:23:55.138Z,97880.59
2022-09-13T02:26:43.175Z,97883.97
2022-09-13T02:29:32.534Z,97743.13
2022-09-13T02:32:35.845Z,97738.75
2022-09-13T02:35:31.943Z,97904.13
2022-09-13T02:38:51.028Z,97881.78
2022-09-13T02:41:59.697Z,97735.84
2022-09-13T02:44:54.180Z,97867.84
2022-09-13T02:47:58.417Z,97915.53
2022-09-13T02:51:00.504Z,97899.63
2022-09-13T02:54:07.914Z,97888.22
2022-09-13T02:57:07.696Z,97894.66
2022-09-13T02:59:53.460Z,97771.69
2022-09-13T03:02:42.485Z,97898.88
2022-09-13T03:05:27.861Z,97890.88
2022-09-13T03:08:17.116Z,97899.63
2022-09-13T03:11:20.865Z,97894.91
2022-09-13T03:14:25.855Z,97897.69
2022-09-13T03:17:43.884Z,97909.38
2022-09-13T03:20:38.244Z,97726.66
2022-09-13T03:23:27.004Z,97881.94
2022-09-13T03:26:51.292Z,97880.59
2022-09-13T03:30:15.962Z,97869.50
2022-09-13T03:33:14.081Z,97870.81
2022-09-13T03:36:49.095Z,97856.94
2022-09-13T03:39:43.946Z,97891.72
2022-09-13T03:42:39.279Z,97867.59
2022-09-13T03:45:30.367Z,97849.94
2022-09-13T03:48:17.389Z,97876.78
2022-09-13T03:51:03.076Z,97839.81
2022-09-13T03:53:56.846Z,97861.56
2022-09-13T03:56:42.744Z,97844.66
2022-09-13T03:59:28.258Z,97865.22
2022-09-13T04:02:14.768Z,97871.50
2022-09-13T04:05:00.259Z,97712.66
2022-09-13T04:07:45.690Z,97843.00
2022-09-13T04:10:35.682Z,97878.84
2022-09-13T04:13:23.004Z,97874.00
2022-09-13T04:16:09.046Z,97874.00
2022-09-13T04:18:54.574Z,97882.34
2022-09-13T04:21:41.156Z,97872.66
2022-09-13T04:24:29.017Z,97849.09
2022-09-13T04:27:14.799Z,97735.50
2022-09-13T04:30:00.285Z,97870.34
2022-09-13T04:32:45.895Z,97702.72
2022-09-13T04:35:31.225Z,97797.25
2022-09-13T04:38:16.635Z,97879.97
2022-09-13T04:41:02.234Z,97886.97
2022-09-13T04:43:50.897Z,97884.34
2022-09-13T04:46:36.530Z,97889.88
2022-09-13T04:49:22.111Z,97896.75
2022-09-13T04:52:07.307Z,97889.63
2022-09-13T04:54:52.652Z,97729.00
2022-09-13T04:57:38.152Z,97759.56
2022-09-13T05:00:25.607Z,97882.03
2022-09-13T05:03:11.201Z,97876.22
2022-09-13T05:06:04.435Z,97733.19
2022-09-13T05:08:55.952Z,97896.34
2022-09-13T05:11:42.193Z,97895.16
2022-09-13T05:14:28.086Z,97894.72
2022-09-13T05:17:13.855Z,97880.16
2022-09-13T05:19:59.099Z,97773.06
2022-09-13T05:22:44.661Z,97895.44
2022-09-13T05:25:30.018Z,97738.13
2022-09-13T05:28:15.415Z,97803.94
2022-09-13T05:31:06.663Z,97891.50
2022-09-13T05:34:00.942Z,97785.75
2022-09-13T05:36:50.425Z,97898.53
2022-09-13T05:40:00.326Z,97819.97
2022-09-13T05:42:43.671Z,97739.59
2022-09-13T05:45:29.179Z,97759.53
2022-09-13T05:48:14.970Z,97884.06
2022-09-13T05:51:06.760Z,97914.44
2022-09-13T05:53:54.832Z,97905.38
2022-09-13T05:56:40.722Z,97747.31
2022-09-13T05:59:26.655Z,97902.72
2022-09-13T06:02:12.072Z,97765.38
2022-09-13T06:04:57.327Z,97896.91
2022-09-13T06:07:43.026Z,97895.25
2022-09-13T06:10:28.622Z,97865.13
2022-09-13T06:13:14.117Z,97716.63
2022-09-13T06:16:01.519Z,97899.44
2022-09-13T06:18:47.239Z,97900.03
2022-09-13T06:21:32.806Z,97861.56
2022-09-13T06:24:18.134Z,97892.75
2022-09-13T06:27:04.220Z,97898.31
2022-09-13T06:29:50.010Z,97744.78
2022-09-13T06:32:35.875Z,97902.66
2022-09-13T06:35:21.372Z,97843.91
2022-09-13T06:38:06.754Z,97904.28
2022-09-13T06:41:09.655Z,97926.75
2022-09-13T06:43:57.723Z,97770.66
2022-09-13T06:46:43.384Z,97891.56
2022-09-13T06:49:29.296Z,97806.50
2022-09-13T06:52:15.213Z,97900.69
2022-09-13T06:55:00.481Z,97903.00
2022-09-13T06:57:46.077Z,97900.84
2022-09-13T07:00:31.723Z,97749.13
2022-09-13T07:03:17.295Z,97913.69
2022-09-13T07:06:14.231Z,97916.56
2022-09-13T07:09:01.964Z,97783.31
2022-09-13T07:11:49.360Z,97930.59
2022-09-13T07:14:35.011Z,97822.03
2022-09-13T07:17:20.402Z,97917.84
2022-09-13T07:20:07.945Z,97923.47
2022-09-13T07:22:53.554Z,97924.13
2022-09-13T07:25:39.172Z,97801.19
2022-09-13T07:28:27.383Z,97833.63
2022-09-13T07:31:14.545Z,97931.19
2022-09-13T07:34:08.596Z,97920.31
2022-09-13T07:36:54.627Z,97795.56
2022-09-13T07:39:40.726Z,97933.78
2022-09-13T07:42:26.671Z,97823.47
2022-09-13T07:45:12.996Z,97773.84
2022-09-13T07:47:58.519Z,97930.06
2022-09-13T07:50:43.802Z,97946.13
2022-09-13T07:53:30.837Z,97885.22
2022-09-13T07:56:21.595Z,97940.94
2022-09-13T07:59:10.944Z,97916.47
2022-09-13T08:01:56.386Z,97935.25
2022-09-13T08:04:42.081Z,97906.78
2022-09-13T08:07:27.540Z,97920.41
2022-09-13T08:10:12.976Z,97930.59
2022-09-13T08:12:58.465Z,97913.16
2022-09-13T08:15:44.760Z,97928.97
2022-09-13T08:18:30.438Z,97786.94
2022-09-13T08:21:16.375Z,97922.97
2022-09-13T08:24:02.503Z,97937.78
2022-09-13T08:26:48.678Z,97924.22
2022-09-13T08:29:34.282Z,97927.38
2022-09-13T08:32:19.767Z,97771.06
2022-09-13T08:35:05.255Z,97932.59
2022-09-13T08:37:50.717Z,97778.13
2022-09-13T08:40:43.928Z,97926.81
2022-09-13T08:43:49.657Z,97939.50
2022-09-13T08:46:41.103Z,97777.19
2022-09-13T08:49:34.455Z,97961.56
2022-09-13T08:52:48.068Z,97942.06
2022-09-13T08:55:39.643Z,97931.88
2022-09-13T08:59:07.005Z,97927.16
2022-09-13T09:02:24.896Z,97931.00
2022-09-13T09:05:31.598Z,97923.38
2022-09-13T09:08:39.253Z,97923.47
2022-09-13T09:11:41.245Z,97926.16
2022-09-13T09:14:35.499Z,97927.47
2022-09-13T09:17:26.866Z,97891.75
2022-09-13T09:20:32.027Z,97932.94
2022-09-13T09:23:26.970Z,97938.25
2022-09-13T09:26:18.340Z,97929.28
2022-09-13T09:29:28.290Z,97923.47
2022-09-13T09:32:32.105Z,97907.59
2022-09-13T09:35:39.022Z,97912.31
2022-09-13T09:38:37.100Z,97907.66
2022-09-13T09:41:35.178Z,97915.59
2022-09-13T09:44:23.534Z,97927.19
2022-09-13T09:47:37.493Z,97772.84
2022-09-13T09:50:30.426Z,97909.34
2022-09-13T09:53:27.083Z,97920.84
2022-09-13T09:56:27.399Z,97919.50
2022-09-13T09:59:26.850Z,97911.81
2022-09-13T10:02:20.481Z,97928.84
2022-09-13T10:05:07.049Z,97917.38
2022-09-13T10:08:05.665Z,97906.94
2022-09-13T10:10:56.068Z,97914.59
2022-09-13T10:13:59.223Z,97777.31
2022-09-13T10:16:45.782Z,97919.50
2022-09-13T10:19:32.518Z,97913.69
2022-09-13T10:22:18.896Z,97904.00
2022-09-13T10:25:31.933Z,97762.03
2022-09-13T10:28:19.777Z,97854.81
2022-09-13T10:31:16.300Z,97918.47
2022-09-13T10:34:23.007Z,97919.81
2022-09-13T10:37:22.776Z,97772.97
2022-09-13T10:40:34.224Z,97755.22
2022-09-13T10:43:21.888Z,97901.44
2022-09-13T10:46:13.282Z,97909.00
2022-09-13T10:48:59.264Z,97890.13
2022-09-13T10:51:44.953Z,97759.41
2022-09-13T10:54:30.358Z,97908.47
2022-09-13T10:57:36.779Z,97875.75
2022-09-13T11:00:30.981Z,97887.84
2022-09-13T11:03:52.812Z,97887.66
2022-09-13T11:06:49.083Z,97727.56
2022-09-13T11:10:21.019Z,97880.03
2022-09-13T11:13:57.223Z,97875.31
2022-09-13T11:17:03.966Z,97877.41
2022-09-13T11:20:01.688Z,97871.94
2022-09-13T11:23:13.917Z,97875.25
2022-09-13T11:26:21.729Z,97831.63
2022-09-13T11:29:27.241Z,97864.13
2022-09-13T11:32:28.211Z,97867.03
2022-09-13T11:35:36.005Z,97857.59
2022-09-13T11:38:55.365Z,97848.44
2022-09-13T11:41:59.753Z,97857.25
2022-09-13T11:44:52.200Z,97847.59
2022-09-13T11:48:08.596Z,97841.91
2022-09-13T11:51:12.826Z,97844.41
2022-09-13T11:54:12.308Z,97838.81
2022-09-13T11:57:08.144Z,97677.00
2022-09-13T11:59:57.772Z,97679.44
2022-09-13T12:03:12.816Z,97833.25
2022-09-13T12:06:03.027Z,97833.16
2022-09-13T12:08:51.518Z,97671.88
2022-09-13T12:11:41.900Z,97651.69
2022-09-13T12:14:34.596Z,97843.34
2022-09-13T12:17:37.333Z,97839.94
2022-09-13T12:20:43.082Z,97814.81
2022-09-13T12:23:34.131Z,97790.13
2022-09-13T12:26:37.608Z,97807.72
2022-09-13T12:29:49.154Z,97820.22
2022-09-13T12:32:37.698Z,97807.03
2022-09-13T12:35:38.759Z,97805.84
2022-09-13T12:38:43.452Z,97807.34
2022-09-13T12:41:35.098Z,97801.94
2022-09-13T12:44:23.827Z,97813.88
2022-09-13T12:47:47.325Z,97804.63
2022-09-13T12:50:43.820Z,97803.03
2022-09-13T12:53:52.461Z,97795.97
2022-09-13T12:57:08.763Z,97781.78
2022-09-13T13:00:12.760Z,97789.31
2022-09-13T13:03:11.819Z,97788.75
2022-09-13T13:06:26.731Z,97783.97
2022-09-13T13:09:44.696Z,97788.84
2022-09-13T13:12:38.756Z,97777.38
2022-09-13T13:15:27.303Z,97788.19
2022-09-13T13:18:45.558Z,97780.44
2022-09-13T13:21:40.219Z,97799.56
2022-09-13T13:24:28.557Z,97785.13
2022-09-13T13:27:34.736Z,97772.94
2022-09-13T13:30:40.307Z,97802.88
2022-09-13T13:33:29.471Z,97686.72
2022-09-13T13:36:28.772Z,97753.38
2022-09-13T13:39:23.224Z,97774.94
2022-09-13T13:42:27.592Z,97650.44
2022-09-13T13:45:26.443Z,97763.44
2022-09-13T13:48:15.688Z,97601.50
2022-09-13T13:51:16.283Z,97733.25
2022-09-13T13:54:24.252Z,97596.56
2022-09-13T13:57:31.270Z,97728.94
2022-09-13T14:00:26.890Z,97779.16
2022-09-13T14:03:42.286Z,97749.53
2022-09-13T14:07:06.439Z,97756.44
2022-09-13T14:10:23.503Z,97605.09
2022-09-13T14:13:25.842Z,97734.75
2022-09-13T14:16:11.509Z,97754.34
2022-09-13T14:19:15.779Z,97750.66
2022-09-13T14:22:21.651Z,97756.97
2022-09-13T14:25:18.570Z,97762.41
2022-09-13T14:28:07.211Z,97756.97
2022-09-13T14:30:55.605Z,97742.53
2022-09-13T14:33:40.929Z,97612.88
2022-09-13T14:36:27.646Z,97591.19
2022-09-13T14:39:13.376Z,97745.06
2022-09-13T14:42:19.078Z,97747.41
2022-09-13T14:45:04.801Z,97737.66
2022-09-13T14:48:18.237Z,97578.75
2022-09-13T14:51:08.849Z,97589.56
2022-09-13T14:54:05.638Z,97629.31
2022-09-13T14:56:58.090Z,97581.19
2022-09-13T14:59:49.186Z,97724.25
2022-09-13T15:02:42.773Z,97726.44
2022-09-13T15:05:32.867Z,97682.84
2022-09-13T15:08:43.041Z,97697.00
2022-09-13T15:11:35.536Z,97723.53
2022-09-13T15:14:39.357Z,97729.13
2022-09-13T15:17:25.357Z,97644.13
2022-09-13T15:20:12.501Z,97569.44
2022-09-13T15:22:58.676Z,97717.78
2022-09-13T15:25:57.029Z,97681.66
2022-09-13T15:28:53.807Z,97676.06
2022-09-13T15:31:39.195Z,97717.69
2022-09-13T15:34:25.161Z,97725.81
2022-09-13T15:37:12.962Z,97687.25
2022-09-13T15:40:21.012Z,97705.88
2022-09-13T15:43:07.616Z,97715.00
2022-09-13T15:45:53.655Z,97716.81
2022-09-13T15:48:52.694Z,97690.56
2022-09-13T15:51:45.568Z,97713.34
2022-09-13T15:54:41.652Z,97715.78
2022-09-13T15:57:29.655Z,97625.81
2022-09-13T16:00:19.053Z,97745.19
2022-09-13T16:03:04.844Z,97719.09
2022-09-13T16:05:50.852Z,97719.81
2022-09-13T16:08:38.782Z,97585.41
2022-09-13T16:11:24.309Z,97603.38
2022-09-13T16:14:09.847Z,97712.50
2022-09-13T16:16:57.831Z,97562.88
2022-09-13T16:19:43.501Z,97710.31
2022-09-13T16:22:29.411Z,97686.00
2022-09-13T16:25:16.603Z,97608.25
2022-09-13T16:28:03.472Z,97722.56
2022-09-13T16:30:52.449Z,97700.22
2022-09-13T16:33:40.276Z,97471.81
2022-09-13T16:36:29.158Z,97721.94
2022-09-13T16:39:15.010Z,97720.09
2022-09-13T16:42:00.663Z,97598.28
2022-09-13T16:44:49.421Z,97717.97
2022-09-13T16:47:35.520Z,97664.00
2022-09-13T16:50:21.287Z,97717.38
2022-09-13T16:53:09.006Z,97719.97
2022-09-13T16:56:06.947Z,97682.16
2022-09-13T16:58:53.831Z,97660.31
2022-09-13T17:01:40.297Z,97659.41
2022-09-13T17:04:26.300Z,97678.84
2022-09-13T17:07:13.461Z,97582.53
2022-09-13T17:09:59.707Z,97666.75
2022-09-13T17:12:45.675Z,97577.81
2022-09-13T17:15:31.185Z,97698.19
2022-09-13T17:18:17.160Z,97554.31
2022-09-13T17:21:02.668Z,97713.06
2022-09-13T17:23:48.533Z,97699.88
2022-09-13T17:26:35.688Z,97706.78
2022-09-13T17:29:22.211Z,97602.00
2022-09-13T17:32:07.739Z,97634.31
2022-09-13T17:34:54.116Z,97702.75
2022-09-13T17:37:39.759Z,97543.91
2022-09-13T17:40:27.389Z,97700.06
2022-09-13T17:43:14.083Z,97701.81
2022-09-13T17:46:06.938Z,97659.09
2022-09-13T17:48:59.322Z,97533.09
2022-09-13T17:51:44.773Z,97693.84
2022-09-13T17:54:30.253Z,97540.13
2022-09-13T17:57:15.844Z,97599.25
2022-09-13T18:00:02.720Z,97574.44
2022-09-13T18:02:49.497Z,97721.63
2022-09-13T18:05:35.224Z,97700.66
2022-09-13T18:08:20.603Z,97581.34
2022-09-13T18:11:19.468Z,97551.31
2022-09-13T18:14:11.871Z,97635.44
2022-09-13T18:16:58.420Z,97683.19
2022-09-13T18:19:46.924Z,97569.03
2022-09-13T18:22:35.723Z,97721.66
2022-09-13T18:25:23.625Z,97717.34
2022-09-13T18:28:09.508Z,97718.78
2022-09-13T18:30:56.674Z,97555.06
2022-09-13T18:33:42.858Z,97744.31
2022-09-13T18:36:30.360Z,97720.66
2022-09-13T18:39:22.057Z,97560.47
2022-09-13T18:42:08.773Z,97723.34
2022-09-13T18:44:54.408Z,97684.09
2022-09-13T18:47:39.982Z,97695.97
2022-09-13T18:50:25.634Z,97692.50
2022-09-13T18:53:10.930Z,97722.94
2022-09-13T18:56:06.819Z,97722.22
2022-09-13T18:58:53.877Z,97555.13
2022-09-13T19:01:41.734Z,97718.59
2022-09-13T19:04:27.834Z,97698.69
2022-09-13T19:07:13.322Z,97723.44
2022-09-13T19:09:59.296Z,97709.06
2022-09-13T19:12:44.474Z,97705.78
2022-09-13T19:15:31.136Z,97707.44
2022-09-13T19:18:16.844Z,97715.19
2022-09-13T19:21:08.893Z,97689.56
2022-09-13T19:24:06.491Z,97702.13
2022-09-13T19:26:55.463Z,97605.56
2022-09-13T19:29:41.177Z,97707.72
2022-09-13T19:32:26.586Z,97697.81
2022-09-13T19:35:12.226Z,97700.72
2022-09-13T19:37:57.805Z,97686.94
2022-09-13T19:40:43.157Z,97539.28
2022-09-13T19:43:31.149Z,97563.28
2022-09-13T19:46:20.791Z,97691.50
2022-09-13T19:49:08.694Z,97695.88
2022-09-13T19:51:54.861Z,97536.97
2022-09-13T19:54:40.127Z,97565.97
2022-09-13T19:57:25.871Z,97698.00
2022-09-13T20:00:13.528Z,97687.72
2022-09-13T20:02:59.544Z,97702.16
2022-09-13T20:05:45.382Z,97628.09
2022-09-13T20:08:31.287Z,97664.00
2022-09-13T20:11:17.948Z,97693.34
2022-09-13T20:14:04.654Z,97699.47
2022-09-13T20:16:50.666Z,97698.22
2022-09-13T20:19:41.866Z,97695.22
2022-09-13T20:22:30.928Z,97658.75
2022-09-13T20:25:18.538Z,97512.22
2022-09-13T20:28:04.357Z,97678.69
2022-09-13T20:30:57.780Z,97688.16
2022-09-13T20:33:43.637Z,97688.16
2022-09-13T20:36:31.411Z,97580.13
2022-09-13T20:39:18.615Z,97524.56
2022-09-13T20:42:04.180Z,97708.13
2022-09-13T20:44:50.196Z,97518.50
2022-09-13T20:47:36.862Z,97664.44
2022-09-13T20:50:22.842Z,97527.19
2022-09-13T20:53:08.370Z,97526.09
2022-09-13T20:55:54.951Z,97622.16
2022-09-13T20:58:42.610Z,97657.81
2022-09-13T21:01:29.996Z,97699.53
2022-09-13T21:04:17.639Z,97664.06
2022-09-13T21:07:21.466Z,97677.72
2022-09-13T21:10:07.077Z,97512.56
2022-09-13T21:12:53.214Z,97675.53
2022-09-13T21:15:39.199Z,97666.34
2022-09-13T21:18:24.828Z,97664.38
2022-09-13T21:21:15.451Z,97504.00
2022-09-13T21:24:02.855Z,97659.84
2022-09-13T21:26:48.304Z,97687.16
2022-09-13T21:29:34.329Z,97518.72
2022-09-13T21:32:19.619Z,97486.75
2022-09-13T21:35:05.308Z,97661.50
2022-09-13T21:37:50.899Z,97513.16
2022-09-13T21:40:36.180Z,97658.34
2022-09-13T21:43:21.623Z,97609.28
2022-09-13T21:46:21.435Z,97648.66
2022-09-13T21:49:12.526Z,97507.84
2022-09-13T21:51:57.910Z,97514.09
2022-09-13T21:54:43.604Z,97637.38
2022-09-13T21:57:29.137Z,97642.09
2022-09-13T22:00:15.161Z,97670.69
2022-09-13T22:03:00.480Z,97449.03
2022-09-13T22:05:45.891Z,97468.22
2022-09-13T22:08:33.920Z,97629.03
2022-09-13T22:11:27.790Z,97638.66
2022-09-13T22:14:15.730Z,97558.72
2022-09-13T22:17:01.912Z,97628.97
2022-09-13T22:19:47.861Z,97619.78
2022-09-13T22:22:33.263Z,97476.88
2022-09-13T22:25:18.597Z,97607.25
2022-09-13T22:28:04.030Z,97593.69
2022-09-13T22:30:49.568Z,97448.75
2022-09-13T22:33:35.724Z,97607.88
2022-09-13T22:36:21.109Z,97435.50
2022-09-13T22:39:07.081Z,97565.88
2022-09-13T22:41:52.664Z,97475.69
2022-09-13T22:44:38.232Z,97459.97
2022-09-13T22:47:23.734Z,97562.63
2022-09-13T22:50:09.272Z,97429.59
2022-09-13T22:52:55.010Z,97587.91
2022-09-13T22:55:40.416Z,97526.38
2022-09-13T22:58:25.687Z,97617.00
2022-09-13T23:01:17.277Z,97453.72
2022-09-13T23:04:04.343Z,97468.31
2022-09-13T23:06:49.475Z,97586.13
2022-09-13T23:09:34.912Z,97554.25
2022-09-13T23:12:20.251Z,97579.75
2022-09-13T23:15:06.192Z,97434.16
2022-09-13T23:17:51.811Z,97531.41
2022-09-13T23:20:37.723Z,97539.16
2022-09-13T23:23:23.211Z,97585.56
2022-09-13T23:26:11.671Z,97529.75
2022-09-13T23:28:59.786Z,97586.91
2022-09-13T23:31:47.142Z,97569.84
2022-09-13T23:34:32.708Z,97552.44
2022-09-13T23:37:18.036Z,97575.41
2022-09-13T23:40:04.252Z,97552.94
2022-09-13T23:42:49.742Z,97406.88
2022-09-13T23:45:34.990Z,97348.97
2022-09-13T23:48:20.293Z,97543.88
2022-09-13T23:51:08.575Z,97512.28
2022-09-13T23:53:57.086Z,97508.75
2022-09-13T23:56:42.793Z,97459.31
2022-09-13T23:59:28.244Z,97534.34
